Time;durP1;ratioP1;P1;durP2;ratioP2;P2;SDS_P1;SDS_P2;PMS_P1;PMS_P2;Temp;Humidity;BMP_temperature;BMP_pressure;BME280_temperature;BME280_humidity;BME280_pressure;Samples;Min_cycle;Max_cycle;Signal;HPM_P1;HPM_P2
2023/12/05 00:02:04;;;;;;;1.43;1.33;;;22.40;54.20;;;;;;5075225;28;20443;-85
2023/12/05 00:04:31;;;;;;;1.50;1.03;;;22.30;54.20;;;;;;5074442;28;20506;-85
2023/12/05 00:06:58;;;;;;;1.40;1.23;;;22.30;54.20;;;;;;5075031;28;20452;-85
2023/12/05 00:09:25;;;;;;;1.57;1.43;;;22.30;54.30;;;;;;5075012;28;20806;-85
2023/12/05 00:11:52;;;;;;;1.67;1.57;;;22.30;54.30;;;;;;5074851;28;20519;-85
2023/12/05 00:14:20;;;;;;;1.60;1.20;;;22.30;54.30;;;;;;5072420;28;20863;-88
2023/12/05 00:16:47;;;;;;;1.40;1.17;;;22.30;54.30;;;;;;5072083;28;20444;-85
2023/12/05 00:19:14;;;;;;;1.40;1.30;;;22.30;54.40;;;;;;5074078;28;20445;-85
2023/12/05 00:21:41;;;;;;;1.40;1.30;;;22.30;54.40;;;;;;5071913;28;20455;-86
2023/12/05 00:24:08;;;;;;;1.30;1.20;;;22.30;54.40;;;;;;5072256;28;20490;-85
2023/12/05 00:26:35;;;;;;;1.30;1.20;;;22.20;54.40;;;;;;5074354;28;20440;-85
2023/12/05 00:29:02;;;;;;;2.43;1.17;;;22.30;54.50;;;;;;5074639;28;20765;-85
2023/12/05 00:31:30;;;;;;;1.47;1.30;;;22.20;54.40;;;;;;5074233;28;20479;-85
2023/12/05 00:33:57;;;;;;;1.40;1.27;;;22.20;54.40;;;;;;5074474;28;20544;-86
2023/12/05 00:36:24;;;;;;;1.50;1.40;;;22.20;54.40;;;;;;5074506;28;20439;-85
2023/12/05 00:38:51;;;;;;;1.70;1.30;;;22.20;54.40;;;;;;5073791;28;20437;-85
2023/12/05 00:41:18;;;;;;;1.20;1.10;;;22.20;54.40;;;;;;5073947;28;20444;-85
2023/12/05 00:43:44;;;;;;;2.90;1.30;;;22.20;54.50;;;;;;5074287;28;20492;-85
2023/12/05 00:46:11;;;;;;;3.63;1.00;;;22.20;54.50;;;;;;5073924;28;20528;-85
2023/12/05 00:48:39;;;;;;;1.40;1.07;;;22.20;54.60;;;;;;5073826;28;20478;-86
2023/12/05 00:51:07;;;;;;;1.77;1.30;;;22.20;55.10;;;;;;5073967;28;20528;-85
2023/12/05 00:53:33;;;;;;;2.73;1.13;;;22.20;54.50;;;;;;5074250;28;20443;-85
2023/12/05 00:56:00;;;;;;;1.23;1.00;;;22.20;54.50;;;;;;5073948;28;20443;-85
2023/12/05 00:58:27;;;;;;;2.60;1.27;;;22.20;54.50;;;;;;5074146;28;20523;-85
2023/12/05 01:00:54;;;;;;;1.23;1.13;;;22.20;54.50;;;;;;5073736;28;20440;-85
2023/12/05 01:03:21;;;;;;;1.37;1.23;;;22.20;54.40;;;;;;5073860;28;20500;-85
2023/12/05 01:05:49;;;;;;;1.50;1.37;;;22.20;54.40;;;;;;5074055;28;20437;-85
2023/12/05 01:08:16;;;;;;;1.50;1.00;;;22.30;54.50;;;;;;5073762;28;20439;-85
2023/12/05 01:10:42;;;;;;;2.37;1.20;;;22.30;54.50;;;;;;5072599;28;20462;-85
2023/12/05 01:13:09;;;;;;;2.07;1.20;;;22.30;54.50;;;;;;5073372;28;20797;-85
2023/12/05 01:15:37;;;;;;;1.40;1.27;;;22.30;54.50;;;;;;5073886;28;20428;-85
2023/12/05 01:18:04;;;;;;;1.33;1.20;;;22.30;54.40;;;;;;5072356;28;20461;-85
2023/12/05 01:20:31;;;;;;;1.57;1.47;;;22.30;54.40;;;;;;5073455;28;20923;-85
2023/12/05 01:22:59;;;;;;;1.60;1.40;;;22.30;54.40;;;;;;5072276;28;20826;-85
2023/12/05 01:25:26;;;;;;;1.40;1.27;;;22.30;54.40;;;;;;5073537;28;20528;-85
2023/12/05 01:27:53;;;;;;;1.30;1.13;;;22.30;54.40;;;;;;5073745;28;20610;-85
2023/12/05 01:30:20;;;;;;;1.30;1.20;;;22.30;54.40;;;;;;5072911;28;20462;-85
2023/12/05 01:32:47;;;;;;;1.27;1.10;;;22.30;54.40;;;;;;5073410;28;20447;-85
2023/12/05 01:35:13;;;;;;;1.47;1.27;;;22.30;54.40;;;;;;5073368;28;20493;-85
2023/12/05 01:37:40;;;;;;;1.30;1.13;;;22.30;54.40;;;;;;5073375;28;20440;-88
2023/12/05 01:40:10;;;;;;;1.20;1.00;;;22.30;54.40;;;;;;5073247;28;20436;-86
2023/12/05 01:42:37;;;;;;;1.50;1.40;;;22.30;54.40;;;;;;5073067;28;20523;-85
2023/12/05 01:45:05;;;;;;;1.50;1.40;;;22.30;54.40;;;;;;5073364;28;20476;-85
2023/12/05 01:47:34;;;;;;;1.30;1.10;;;22.30;54.40;;;;;;5073321;28;20439;-87
2023/12/05 01:50:02;;;;;;;1.30;1.20;;;22.40;54.40;;;;;;5089939;28;20466;-85
2023/12/05 01:52:30;;;;;;;1.50;1.40;;;22.30;54.30;;;;;;5092892;28;20449;-85
2023/12/05 01:54:57;;;;;;;1.30;1.20;;;22.40;55.00;;;;;;5093383;28;20439;-85
2023/12/05 01:57:26;;;;;;;1.20;1.10;;;22.40;54.40;;;;;;5093731;28;20461;-85
2023/12/05 01:59:54;;;;;;;1.30;1.17;;;22.30;54.30;;;;;;5093316;28;20446;-85
2023/12/05 02:02:21;;;;;;;1.40;1.30;;;22.30;54.30;;;;;;5093058;28;20522;-85
2023/12/05 02:04:48;;;;;;;1.27;1.10;;;22.30;54.30;;;;;;5093174;28;20510;-85
2023/12/05 02:07:16;;;;;;;1.60;1.50;;;22.40;54.40;;;;;;5093269;28;20866;-84
2023/12/05 02:09:44;;;;;;;1.30;1.10;;;22.40;54.30;;;;;;5093156;28;20538;-85
2023/12/05 02:12:11;;;;;;;2.70;1.00;;;22.40;54.40;;;;;;5092947;28;20443;-85
2023/12/05 02:14:39;;;;;;;1.27;1.03;;;22.30;54.30;;;;;;5093390;28;20526;-88
2023/12/05 02:17:13;;;;;;;1.30;1.10;;;22.30;54.30;;;;;;5087213;28;20451;-85
2023/12/05 02:19:52;;;;;;;1.27;1.17;;;22.30;54.90;;;;;;5081891;28;20608;-85
2023/12/05 02:22:39;;;;;;;1.40;1.20;;;22.30;54.30;;;;;;5075340;28;20542;-87
2023/12/05 02:25:17;;;;;;;1.23;1.10;;;22.30;54.30;;;;;;5076360;28;20491;-85
2023/12/05 02:27:47;;;;;;;1.27;1.17;;;22.30;54.40;;;;;;5093204;28;20427;-85
2023/12/05 02:30:16;;;;;;;1.20;0.87;;;22.30;55.00;;;;;;5092988;28;20462;-85
2023/12/05 02:32:43;;;;;;;1.10;0.93;;;22.30;54.40;;;;;;5092646;28;20471;-85
2023/12/05 02:35:11;;;;;;;1.50;1.40;;;22.30;54.40;;;;;;5093063;28;20462;-85
2023/12/05 02:37:48;;;;;;;1.17;0.97;;;22.30;54.40;;;;;;5093056;28;20915;-84
2023/12/05 02:40:19;;;;;;;1.50;1.40;;;22.30;54.30;;;;;;5092955;28;20435;-85
2023/12/05 02:42:51;;;;;;;1.40;1.00;;;22.30;54.30;;;;;;5092603;28;20436;-87
2023/12/05 02:45:21;;;;;;;1.20;1.10;;;22.30;54.30;;;;;;5092787;28;20570;-85
2023/12/05 02:47:50;;;;;;;1.30;1.03;;;22.30;54.90;;;;;;5092914;28;20530;-85
2023/12/05 02:50:17;;;;;;;1.27;1.10;;;22.30;54.90;;;;;;5092594;28;20471;-85
2023/12/05 02:52:44;;;;;;;1.13;1.00;;;22.30;54.30;;;;;;5092656;28;20439;-85
2023/12/05 02:55:11;;;;;;;1.10;0.90;;;22.30;54.30;;;;;;5092871;28;20453;-85
2023/12/05 02:57:38;;;;;;;1.53;1.00;;;22.30;54.30;;;;;;5092908;28;20792;-85
2023/12/05 03:00:08;;;;;;;1.30;1.20;;;22.30;54.30;;;;;;5092896;28;20437;-85
2023/12/05 03:02:35;;;;;;;1.67;0.90;;;22.30;54.30;;;;;;5093286;28;20933;-85
2023/12/05 03:05:01;;;;;;;1.40;1.00;;;22.30;54.30;;;;;;5096249;28;20494;-85
2023/12/05 03:07:28;;;;;;;1.33;1.23;;;22.40;54.40;;;;;;5096622;28;20436;-88
2023/12/05 03:09:55;;;;;;;1.30;1.20;;;22.30;54.30;;;;;;5096486;28;20778;-85
2023/12/05 03:12:22;;;;;;;1.10;0.90;;;22.30;54.30;;;;;;5096270;28;20437;-85
2023/12/05 03:14:49;;;;;;;1.33;1.17;;;22.30;54.30;;;;;;5096315;28;20534;-85
2023/12/05 03:17:17;;;;;;;1.30;1.10;;;22.30;54.40;;;;;;5090200;28;20522;-85
2023/12/05 03:19:44;;;;;;;1.10;0.93;;;22.40;54.40;;;;;;5081853;28;20502;-85
2023/12/05 03:22:10;;;;;;;1.20;1.10;;;22.30;54.30;;;;;;5092142;28;20461;-85
2023/12/05 03:24:37;;;;;;;1.27;1.00;;;22.40;54.40;;;;;;5096083;28;21068;-85
2023/12/05 03:27:04;;;;;;;1.93;1.40;;;22.40;54.40;;;;;;5096121;28;20438;-85
2023/12/05 03:29:31;;;;;;;1.20;1.00;;;22.40;54.40;;;;;;5077761;28;20528;-85
2023/12/05 03:31:58;;;;;;;1.57;1.00;;;22.40;54.40;;;;;;5085316;28;20589;-85
2023/12/05 03:34:26;;;;;;;1.10;0.90;;;22.40;54.40;;;;;;5095862;28;20459;-85
2023/12/05 03:36:53;;;;;;;1.20;1.00;;;22.30;54.30;;;;;;5095901;28;20432;-85
2023/12/05 03:39:20;;;;;;;1.20;1.10;;;22.40;54.40;;;;;;5095715;28;20438;-85
2023/12/05 03:41:47;;;;;;;1.20;1.00;;;22.40;54.40;;;;;;5095743;28;20515;-85
2023/12/05 03:44:14;;;;;;;1.13;0.93;;;22.40;54.40;;;;;;5095688;28;20999;-85
2023/12/05 03:46:41;;;;;;;1.10;0.90;;;22.40;54.40;;;;;;5095790;28;20446;-85
2023/12/05 03:49:08;;;;;;;1.13;0.90;;;22.40;54.30;;;;;;5095327;28;20558;-85
2023/12/05 03:51:36;;;;;;;1.20;1.10;;;22.40;54.40;;;;;;5095610;28;20464;-85
2023/12/05 03:54:02;;;;;;;1.10;1.00;;;22.40;54.40;;;;;;5095528;28;20470;-85
2023/12/05 03:56:29;;;;;;;1.27;0.90;;;22.40;54.40;;;;;;5095556;28;20439;-85
2023/12/05 03:58:56;;;;;;;1.30;1.10;;;22.40;54.40;;;;;;5095720;28;20792;-84
2023/12/05 04:01:23;;;;;;;1.10;0.90;;;22.40;54.40;;;;;;5095624;28;20432;-85
2023/12/05 04:03:50;;;;;;;1.10;0.90;;;22.40;54.30;;;;;;5095348;28;20455;-85
2023/12/05 04:06:21;;;;;;;1.57;1.17;;;22.40;54.40;;;;;;5095321;28;20440;-85
2023/12/05 04:08:49;;;;;;;1.40;0.90;;;22.40;54.30;;;;;;5095251;28;20432;-84
2023/12/05 04:11:17;;;;;;;1.10;1.00;;;22.40;54.30;;;;;;5094995;28;20918;-85
2023/12/05 04:13:43;;;;;;;1.10;0.93;;;22.40;54.50;;;;;;5095032;28;20926;-85
2023/12/05 04:16:12;;;;;;;1.23;0.90;;;22.40;54.40;;;;;;5095507;28;20812;-86
2023/12/05 04:18:38;;;;;;;1.07;0.80;;;22.40;54.40;;;;;;5072720;28;20543;-85
2023/12/05 04:21:05;;;;;;;1.20;1.10;;;22.30;54.30;;;;;;5075163;28;20436;-85
2023/12/05 04:23:32;;;;;;;1.47;1.30;;;22.30;54.30;;;;;;5074827;28;20533;-85
2023/12/05 04:26:00;;;;;;;1.30;1.20;;;22.30;54.30;;;;;;5074755;28;20479;-86
2023/12/05 04:28:28;;;;;;;1.30;1.20;;;22.30;54.30;;;;;;5074699;28;20451;-86
2023/12/05 04:30:55;;;;;;;1.20;1.00;;;22.30;54.40;;;;;;5074827;28;20472;-85
2023/12/05 04:33:22;;;;;;;1.20;0.80;;;22.30;54.40;;;;;;5074553;28;20525;-84
2023/12/05 04:35:48;;;;;;;1.10;0.90;;;22.30;54.40;;;;;;5074657;28;20810;-85
2023/12/05 04:38:16;;;;;;;1.00;0.80;;;22.30;54.40;;;;;;5074443;28;20440;-85
2023/12/05 04:40:46;;;;;;;1.10;0.77;;;22.30;54.40;;;;;;5073507;28;20436;-89
2023/12/05 04:43:14;;;;;;;1.10;0.93;;;22.30;54.70;;;;;;5070797;28;20792;-84
2023/12/05 04:45:41;;;;;;;1.10;0.80;;;22.40;54.50;;;;;;5064465;28;20492;-88
2023/12/05 04:48:08;;;;;;;1.30;1.00;;;22.30;54.40;;;;;;5069472;28;20476;-87
2023/12/05 04:50:35;;;;;;;1.10;0.93;;;22.30;54.40;;;;;;5061955;28;20432;-84
2023/12/05 04:53:02;;;;;;;1.00;0.70;;;22.30;54.40;;;;;;5058712;28;20430;-85
2023/12/05 04:55:29;;;;;;;1.20;1.03;;;22.40;54.50;;;;;;5062882;28;20433;-84
2023/12/05 04:57:56;;;;;;;1.20;1.00;;;22.40;54.40;;;;;;5062466;28;20437;-84
2023/12/05 05:00:24;;;;;;;1.10;0.83;;;22.40;54.40;;;;;;5065267;28;20796;-84
2023/12/05 05:02:51;;;;;;;1.23;0.90;;;22.40;54.40;;;;;;5073907;28;20540;-84
2023/12/05 05:05:18;;;;;;;1.10;1.00;;;22.40;54.40;;;;;;5074035;28;20491;-84
2023/12/05 05:07:44;;;;;;;1.07;0.80;;;22.40;54.40;;;;;;5058135;28;20445;-85
2023/12/05 05:10:11;;;;;;;1.20;0.90;;;22.40;54.40;;;;;;5053970;28;20441;-86
2023/12/05 05:12:38;;;;;;;1.10;0.90;;;22.40;54.40;;;;;;5054038;28;20443;-85
2023/12/05 05:15:06;;;;;;;1.23;1.10;;;22.40;54.40;;;;;;5054430;28;20478;-85
2023/12/05 05:17:34;;;;;;;1.00;0.70;;;22.40;54.40;;;;;;5053613;28;20460;-88
2023/12/05 05:20:03;;;;;;;1.00;0.83;;;22.40;54.40;;;;;;5053919;28;20966;-85
2023/12/05 05:22:29;;;;;;;1.10;0.90;;;22.40;54.30;;;;;;5053990;28;20487;-85
2023/12/05 05:24:56;;;;;;;1.10;0.93;;;22.50;54.40;;;;;;5053589;28;20491;-85
2023/12/05 05:27:23;;;;;;;1.00;0.80;;;22.50;54.40;;;;;;5053558;28;20445;-85
2023/12/05 05:29:50;;;;;;;1.87;0.90;;;22.50;55.00;;;;;;5053772;28;20811;-85
2023/12/05 05:32:17;;;;;;;1.10;0.90;;;22.50;54.30;;;;;;5053732;28;20936;-85
2023/12/05 05:34:45;;;;;;;1.00;0.70;;;22.50;54.40;;;;;;5053645;28;20458;-85
2023/12/05 05:37:11;;;;;;;1.10;0.90;;;22.60;54.30;;;;;;5053531;28;20931;-85
2023/12/05 05:39:38;;;;;;;1.10;1.00;;;22.60;54.30;;;;;;5053708;28;20449;-85
2023/12/05 05:42:06;;;;;;;1.50;1.00;;;22.60;54.40;;;;;;5052476;28;20434;-87
2023/12/05 05:44:32;;;;;;;1.20;1.00;;;22.60;54.40;;;;;;5053448;28;20441;-86
2023/12/05 05:46:59;;;;;;;1.00;0.80;;;22.60;54.40;;;;;;5053606;28;20426;-85
2023/12/05 05:49:26;;;;;;;1.00;0.80;;;22.60;54.90;;;;;;5053430;28;20461;-86
2023/12/05 05:51:54;;;;;;;2.33;0.90;;;22.60;54.40;;;;;;5053440;28;20429;-85
2023/12/05 05:54:21;;;;;;;1.13;0.90;;;22.60;54.50;;;;;;5053257;28;20444;-85
2023/12/05 05:56:48;;;;;;;1.27;1.13;;;22.60;54.50;;;;;;5053538;28;20469;-85
2023/12/05 05:59:15;;;;;;;1.60;1.00;;;22.60;54.50;;;;;;5053138;28;20528;-85
2023/12/05 06:01:42;;;;;;;1.00;0.70;;;22.60;54.60;;;;;;5051882;28;20471;-85
2023/12/05 06:04:08;;;;;;;5.37;1.20;;;22.60;54.60;;;;;;5052931;28;20463;-86
2023/12/05 06:06:35;;;;;;;1.30;1.00;;;22.60;54.60;;;;;;5052933;28;20512;-88
2023/12/05 06:09:04;;;;;;;1.47;0.97;;;22.60;54.80;;;;;;5053231;28;20444;-84
2023/12/05 06:11:30;;;;;;;1.43;0.80;;;22.60;54.70;;;;;;5053346;28;20437;-87
2023/12/05 06:13:57;;;;;;;1.37;1.27;;;22.60;55.20;;;;;;5053254;28;20438;-85
2023/12/05 06:16:25;;;;;;;1.30;0.90;;;22.70;54.70;;;;;;5053396;28;20448;-83
2023/12/05 06:18:52;;;;;;;2.40;1.20;;;22.70;54.80;;;;;;5053220;28;20438;-85
2023/12/05 06:21:19;;;;;;;1.70;1.00;;;22.70;53.90;;;;;;5052591;28;20444;-86
2023/12/05 06:23:45;;;;;;;2.70;1.20;;;22.70;54.40;;;;;;5049980;28;20444;-85
2023/12/05 06:26:14;;;;;;;1.50;0.90;;;22.70;54.70;;;;;;5050049;28;20527;-86
2023/12/05 06:28:40;;;;;;;2.23;1.50;;;22.60;55.00;;;;;;5050252;28;20439;-86
2023/12/05 06:31:08;;;;;;;1.67;1.20;;;22.60;54.90;;;;;;5050593;28;20439;-85
2023/12/05 06:33:34;;;;;;;2.33;1.10;;;22.60;54.90;;;;;;5050864;28;20469;-87
2023/12/05 06:36:01;;;;;;;1.87;1.10;;;22.60;54.90;;;;;;5050872;28;20445;-86
2023/12/05 06:38:29;;;;;;;1.77;1.20;;;22.60;54.90;;;;;;5054788;28;20444;-87
2023/12/05 06:40:55;;;;;;;2.00;1.20;;;22.60;54.90;;;;;;5056725;28;20433;-87
2023/12/05 06:43:24;;;;;;;1.73;1.10;;;22.60;54.90;;;;;;5056620;28;20439;-86
2023/12/05 06:45:50;;;;;;;1.33;1.00;;;22.60;55.50;;;;;;5056634;28;20485;-87
2023/12/05 06:48:17;;;;;;;3.73;1.20;;;22.60;54.90;;;;;;5058954;28;20439;-86
2023/12/05 06:50:46;;;;;;;1.43;1.20;;;22.60;54.90;;;;;;5076466;28;20440;-87
2023/12/05 06:53:13;;;;;;;2.50;1.20;;;22.60;54.90;;;;;;5076471;28;20432;-86
2023/12/05 06:55:40;;;;;;;2.40;1.17;;;22.60;55.00;;;;;;5076432;28;20436;-86
2023/12/05 06:58:07;;;;;;;2.30;1.23;;;22.60;55.00;;;;;;5076431;28;20440;-86
2023/12/05 07:00:35;;;;;;;1.67;1.17;;;22.60;54.90;;;;;;5076319;28;20433;-85
2023/12/05 07:03:02;;;;;;;3.00;1.43;;;22.60;54.90;;;;;;5076269;28;20546;-85
2023/12/05 07:05:29;;;;;;;1.97;1.33;;;22.60;55.50;;;;;;5076143;28;20487;-86
2023/12/05 07:07:56;;;;;;;1.60;1.10;;;22.60;54.90;;;;;;5076105;28;20436;-86
2023/12/05 07:10:23;;;;;;;3.33;1.37;;;22.60;55.00;;;;;;5076210;28;21084;-85
2023/12/05 07:12:50;;;;;;;1.20;1.03;;;22.60;55.00;;;;;;5076267;28;20437;-86
2023/12/05 07:15:17;;;;;;;1.20;0.97;;;22.60;55.00;;;;;;5076027;28;20443;-86
2023/12/05 07:17:45;;;;;;;1.20;1.00;;;22.70;55.10;;;;;;5076049;28;20429;-87
2023/12/05 07:20:12;;;;;;;2.80;1.40;;;22.60;55.00;;;;;;5075861;28;20541;-86
2023/12/05 07:22:39;;;;;;;1.40;1.00;;;22.70;55.10;;;;;;5076025;28;20424;-86
2023/12/05 07:25:06;;;;;;;2.13;1.47;;;22.70;55.10;;;;;;5075906;28;20486;-86
2023/12/05 07:27:33;;;;;;;5.20;1.30;;;22.70;55.10;;;;;;5076160;28;20437;-82
2023/12/05 07:30:00;;;;;;;1.40;1.10;;;22.70;55.10;;;;;;5075735;28;20436;-86
2023/12/05 07:32:26;;;;;;;1.13;0.90;;;22.70;55.10;;;;;;5075689;28;20443;-86
2023/12/05 07:34:54;;;;;;;1.97;1.33;;;22.70;55.10;;;;;;5075827;28;20463;-86
2023/12/05 07:37:21;;;;;;;2.00;1.13;;;22.70;55.10;;;;;;5075698;28;20436;-86
2023/12/05 07:39:49;;;;;;;1.70;1.10;;;22.70;55.10;;;;;;5075573;28;20448;-85
2023/12/05 07:42:16;;;;;;;2.10;1.33;;;22.70;55.10;;;;;;5075661;28;20447;-87
2023/12/05 07:44:42;;;;;;;1.43;1.17;;;22.70;55.10;;;;;;5075469;28;20436;-85
2023/12/05 07:47:11;;;;;;;2.87;1.20;;;22.70;55.00;;;;;;5075441;28;20494;-86
2023/12/05 07:49:38;;;;;;;1.90;1.30;;;22.70;55.10;;;;;;5074913;28;20472;-85
2023/12/05 07:52:06;;;;;;;1.83;1.30;;;22.90;55.50;;;;;;5075365;28;20443;-86
2023/12/05 07:54:33;;;;;;;2.17;1.23;;;22.80;55.60;;;;;;5075345;28;20441;-86
2023/12/05 07:57:00;;;;;;;2.23;1.53;;;22.80;55.60;;;;;;5075289;28;20928;-87
2023/12/05 07:59:26;;;;;;;2.17;1.20;;;22.80;55.70;;;;;;5075123;28;20436;-82
2023/12/05 08:01:53;;;;;;;2.20;1.20;;;22.80;55.60;;;;;;5075232;28;20927;-89
2023/12/05 08:04:20;;;;;;;1.20;1.07;;;22.80;54.30;;;;;;5075192;28;20963;-86
2023/12/05 08:06:48;;;;;;;7.90;2.10;;;22.70;54.20;;;;;;5066059;28;20498;-91
2023/12/05 08:09:17;;;;;;;1.90;1.70;;;22.60;54.10;;;;;;5075634;28;20435;-90
2023/12/05 08:11:46;;;;;;;3.03;2.00;;;22.50;54.00;;;;;;5072880;28;20452;-89
2023/12/05 08:14:12;;;;;;;5.47;1.87;;;22.40;54.20;;;;;;5056933;28;20541;-83
2023/12/05 08:16:41;;;;;;;3.23;2.30;;;22.30;54.40;;;;;;5058558;28;20445;-88
2023/12/05 08:19:08;;;;;;;4.00;1.20;;;22.40;55.20;;;;;;5072084;28;20498;-96
2023/12/05 08:21:35;;;;;;;4.53;1.33;;;22.30;55.70;;;;;;5075061;28;20429;-83
2023/12/05 08:24:02;;;;;;;3.60;1.30;;;22.30;55.40;;;;;;5072802;28;20443;-86
2023/12/05 08:26:31;;;;;;;2.20;1.10;;;22.30;55.60;;;;;;5074282;28;20492;-84
2023/12/05 08:28:58;;;;;;;3.57;1.50;;;22.40;55.70;;;;;;5073544;28;20494;-84
2023/12/05 08:31:26;;;;;;;3.50;1.80;;;22.40;55.70;;;;;;5075252;28;20458;-84
2023/12/05 08:33:53;;;;;;;2.07;1.20;;;22.40;55.70;;;;;;5074019;28;20464;-87
2023/12/05 08:36:20;;;;;;;3.80;1.33;;;22.50;55.70;;;;;;5074513;28;20924;-86
2023/12/05 08:38:47;;;;;;;2.90;1.10;;;22.50;55.60;;;;;;5074460;28;20848;-86
2023/12/05 08:41:18;;;;;;;3.50;1.23;;;22.50;55.60;;;;;;5074396;28;20442;-84
2023/12/05 08:43:46;;;;;;;3.30;1.10;;;22.60;55.50;;;;;;5073677;28;20444;-83
2023/12/05 08:46:13;;;;;;;1.30;1.00;;;22.50;55.40;;;;;;5073497;28;20494;-85
2023/12/05 08:48:40;;;;;;;4.93;1.10;;;22.60;55.40;;;;;;5079386;28;20471;-86
2023/12/05 08:51:07;;;;;;;1.47;1.00;;;22.60;55.50;;;;;;5094083;28;20439;-84
2023/12/05 08:53:34;;;;;;;1.70;1.27;;;22.60;55.40;;;;;;5094391;28;20458;-83
2023/12/05 08:56:04;;;;;;;6.40;1.33;;;22.60;55.40;;;;;;5094305;28;20442;-86
2023/12/05 08:58:30;;;;;;;2.10;1.10;;;22.70;55.40;;;;;;5094589;28;20989;-84
2023/12/05 09:00:58;;;;;;;2.27;1.17;;;22.70;55.40;;;;;;5093493;28;20445;-84
2023/12/05 09:03:25;;;;;;;1.90;1.20;;;22.70;55.40;;;;;;5094270;28;20448;-84
2023/12/05 09:05:52;;;;;;;3.23;1.07;;;22.70;55.40;;;;;;5094194;28;20569;-84
2023/12/05 09:08:19;;;;;;;1.30;1.00;;;22.70;55.40;;;;;;5094099;28;20436;-84
2023/12/05 09:10:46;;;;;;;2.57;1.37;;;22.70;55.40;;;;;;5094125;28;20423;-84
2023/12/05 09:13:12;;;;;;;1.60;0.90;;;22.70;55.30;;;;;;5094091;28;20552;-84
2023/12/05 09:15:39;;;;;;;2.43;1.27;;;22.80;55.40;;;;;;5094139;28;20434;-85
2023/12/05 09:18:07;;;;;;;1.80;1.10;;;22.80;55.40;;;;;;5093954;28;20530;-84
2023/12/05 09:20:34;;;;;;;1.20;1.00;;;22.80;55.30;;;;;;5093845;28;20438;-84
2023/12/05 09:23:01;;;;;;;3.17;0.90;;;22.80;55.30;;;;;;5093933;28;20431;-84
2023/12/05 09:25:28;;;;;;;1.40;0.97;;;22.80;55.40;;;;;;5093795;28;20539;-84
2023/12/05 09:27:54;;;;;;;1.23;1.00;;;22.80;55.20;;;;;;5093798;28;20446;-85
2023/12/05 09:30:21;;;;;;;2.20;1.10;;;22.80;55.20;;;;;;5093803;28;20446;-85
2023/12/05 09:32:48;;;;;;;1.20;1.10;;;22.80;55.30;;;;;;5093726;28;20822;-84
2023/12/05 09:35:16;;;;;;;1.70;1.33;;;22.80;55.30;;;;;;5093770;28;20454;-85
2023/12/05 09:37:43;;;;;;;1.93;1.10;;;22.80;55.30;;;;;;5093656;28;20450;-86
2023/12/05 09:40:11;;;;;;;1.40;1.10;;;22.80;55.30;;;;;;5093558;28;20439;-84
2023/12/05 09:42:43;;;;;;;1.43;1.17;;;22.80;55.40;;;;;;5093512;28;20440;-86
2023/12/05 09:45:15;;;;;;;1.27;0.93;;;22.80;55.30;;;;;;5093698;28;20447;-84
2023/12/05 09:47:43;;;;;;;1.13;1.00;;;22.80;55.30;;;;;;5093515;28;20490;-84
2023/12/05 09:50:10;;;;;;;1.30;1.03;;;22.90;55.30;;;;;;5093307;28;21058;-87
2023/12/05 09:52:39;;;;;;;1.27;1.10;;;22.80;55.30;;;;;;5093522;28;20793;-84
2023/12/05 09:55:06;;;;;;;1.43;0.90;;;22.90;55.40;;;;;;5093245;28;20475;-84
2023/12/05 09:57:35;;;;;;;2.20;1.30;;;22.80;55.30;;;;;;5093452;28;20442;-84
2023/12/05 10:00:02;;;;;;;1.50;1.00;;;22.90;55.40;;;;;;5093295;28;20442;-86
2023/12/05 10:02:30;;;;;;;1.40;1.30;;;22.90;55.30;;;;;;5093472;28;20432;-84
2023/12/05 10:05:00;;;;;;;1.20;1.00;;;22.90;55.30;;;;;;5093460;28;20440;-83
2023/12/05 10:07:27;;;;;;;1.30;0.80;;;22.90;55.30;;;;;;5093320;28;20491;-84
2023/12/05 10:09:57;;;;;;;1.77;1.00;;;22.90;55.30;;;;;;5093241;28;20465;-84
2023/12/05 10:12:24;;;;;;;1.20;0.77;;;22.90;55.30;;;;;;5096907;28;20441;-84
2023/12/05 10:14:51;;;;;;;1.00;0.90;;;22.90;55.20;;;;;;5100128;28;20923;-84
2023/12/05 10:17:20;;;;;;;1.30;0.80;;;22.90;55.20;;;;;;5100127;28;20438;-84
2023/12/05 10:19:47;;;;;;;1.17;0.90;;;22.90;55.30;;;;;;5081723;28;20445;-84
2023/12/05 10:22:15;;;;;;;1.10;0.80;;;22.90;55.20;;;;;;5080107;28;21112;-86
2023/12/05 10:24:43;;;;;;;1.10;0.87;;;22.90;55.30;;;;;;5071462;28;20452;-90
2023/12/05 10:27:12;;;;;;;3.27;0.80;;;22.90;53.90;;;;;;5057836;28;21067;-86
2023/12/05 10:29:39;;;;;;;3.47;1.10;;;22.90;53.70;;;;;;5058914;28;20441;-87
2023/12/05 10:32:07;;;;;;;1.13;0.83;;;22.80;53.80;;;;;;5059112;28;20479;-86
2023/12/05 10:34:47;;;;;;;1.10;0.90;;;22.70;53.90;;;;;;5057785;28;20457;-86
2023/12/05 10:37:14;;;;;;;1.10;0.80;;;22.60;54.00;;;;;;5059317;28;20425;-85
2023/12/05 10:39:41;;;;;;;1.00;0.80;;;22.60;54.20;;;;;;5075403;28;20455;-84
2023/12/05 10:42:09;;;;;;;1.50;1.10;;;22.60;54.50;;;;;;5081252;28;20447;-86
2023/12/05 10:44:40;;;;;;;1.20;0.90;;;22.60;55.00;;;;;;5099278;28;21099;-84
2023/12/05 10:47:07;;;;;;;1.10;0.80;;;22.60;55.10;;;;;;5099393;28;20570;-85
2023/12/05 10:49:35;;;;;;;1.10;0.70;;;22.70;55.10;;;;;;5099301;28;20987;-84
2023/12/05 10:52:03;;;;;;;1.23;0.90;;;22.70;55.00;;;;;;5099619;28;20435;-84
2023/12/05 10:54:30;;;;;;;1.70;0.90;;;22.70;54.90;;;;;;5099672;28;20492;-86
2023/12/05 10:56:57;;;;;;;2.07;0.73;;;22.70;54.90;;;;;;5099594;28;20522;-84
2023/12/05 10:59:26;;;;;;;1.10;0.80;;;22.80;55.00;;;;;;5099138;28;20443;-84
2023/12/05 11:01:55;;;;;;;1.10;0.90;;;22.80;54.90;;;;;;5099146;28;20447;-84
2023/12/05 11:04:22;;;;;;;1.00;0.70;;;22.80;54.90;;;;;;5099346;28;20462;-84
2023/12/05 11:06:49;;;;;;;1.20;0.80;;;22.80;54.90;;;;;;5099443;28;20493;-84
2023/12/05 11:09:17;;;;;;;1.00;0.77;;;22.80;54.90;;;;;;5099407;28;20427;-85
2023/12/05 11:11:47;;;;;;;1.03;0.80;;;22.80;54.90;;;;;;5099547;28;20427;-84
2023/12/05 11:14:15;;;;;;;1.00;0.73;;;22.90;55.00;;;;;;5099562;28;20427;-84
2023/12/05 11:16:48;;;;;;;1.30;0.80;;;22.90;54.90;;;;;;5099446;28;20427;-86
2023/12/05 11:19:35;;;;;;;1.73;0.87;;;22.90;55.00;;;;;;5099383;28;20454;-86
2023/12/05 11:22:13;;;;;;;1.53;0.80;;;22.90;55.00;;;;;;5099567;28;20427;-84
2023/12/05 11:25:10;;;;;;;1.00;0.80;;;22.90;55.00;;;;;;5095871;28;20437;-84
2023/12/05 11:27:48;;;;;;;1.10;0.80;;;22.90;54.90;;;;;;5096193;28;20491;-84
2023/12/05 11:30:48;;;;;;;1.87;0.83;;;22.90;54.90;;;;;;5096090;28;20435;-84
2023/12/05 11:33:26;;;;;;;1.20;0.90;;;22.90;54.90;;;;;;5087627;28;20966;-84
2023/12/05 11:36:05;;;;;;;1.33;0.83;;;23.00;55.00;;;;;;5096142;28;20814;-84
2023/12/05 11:38:32;;;;;;;1.00;0.80;;;23.00;54.90;;;;;;5095997;28;20439;-84
2023/12/05 11:41:11;;;;;;;1.00;0.80;;;23.00;55.10;;;;;;5095840;28;20445;-84
2023/12/05 11:43:39;;;;;;;0.90;0.60;;;23.00;54.90;;;;;;5095911;28;20496;-84
2023/12/05 11:46:06;;;;;;;1.00;0.70;;;23.00;54.90;;;;;;5095757;28;20441;-87
2023/12/05 11:48:33;;;;;;;1.00;0.70;;;23.00;54.90;;;;;;5095537;28;20821;-84
2023/12/05 11:51:02;;;;;;;1.00;0.70;;;23.00;54.90;;;;;;5095715;28;20444;-84
2023/12/05 11:53:29;;;;;;;1.10;0.80;;;23.00;54.80;;;;;;5095832;28;20502;-86
2023/12/05 11:55:57;;;;;;;1.00;0.70;;;23.10;54.90;;;;;;5095615;28;20491;-84
2023/12/05 11:58:31;;;;;;;1.30;0.70;;;23.00;54.80;;;;;;5095639;28;20442;-84
2023/12/05 12:01:06;;;;;;;1.20;0.77;;;23.00;54.90;;;;;;5095696;28;20442;-85
2023/12/05 12:03:49;;;;;;;1.20;0.70;;;23.10;54.90;;;;;;5095486;28;20455;-86
2023/12/05 12:06:19;;;;;;;1.47;0.90;;;23.10;54.90;;;;;;5095587;28;20534;-86
2023/12/05 12:08:48;;;;;;;1.03;0.73;;;23.10;55.00;;;;;;5095374;28;20526;-86
2023/12/05 12:11:15;;;;;;;1.00;0.80;;;23.10;54.90;;;;;;5095446;28;20440;-87
2023/12/05 12:13:43;;;;;;;1.00;0.70;;;23.10;54.90;;;;;;5095415;28;20441;-87
2023/12/05 12:16:14;;;;;;;1.00;0.80;;;23.10;54.90;;;;;;5095304;28;20443;-84
2023/12/05 12:18:41;;;;;;;1.00;0.63;;;23.10;54.90;;;;;;5095366;28;20470;-84
2023/12/05 12:21:08;;;;;;;1.50;0.90;;;23.10;54.90;;;;;;5095470;28;20435;-85
2023/12/05 12:23:36;;;;;;;1.10;0.80;;;23.10;54.90;;;;;;5095429;28;20424;-86
2023/12/05 12:26:03;;;;;;;1.20;0.80;;;23.10;54.90;;;;;;5088605;28;20444;-85
2023/12/05 12:28:31;;;;;;;1.40;0.70;;;23.10;54.80;;;;;;5092040;28;20593;-84
2023/12/05 12:30:58;;;;;;;1.10;0.70;;;23.10;54.80;;;;;;5077672;28;20471;-86
2023/12/05 12:33:36;;;;;;;0.90;0.60;;;23.10;54.90;;;;;;5074474;28;20537;-84
2023/12/05 12:36:03;;;;;;;1.00;0.70;;;23.10;54.90;;;;;;5073448;28;20466;-85
2023/12/05 12:38:30;;;;;;;1.30;0.80;;;23.10;54.90;;;;;;5073187;28;20500;-85
2023/12/05 12:41:02;;;;;;;1.10;0.77;;;23.10;54.90;;;;;;5074546;28;20815;-90
2023/12/05 12:43:29;;;;;;;1.10;0.70;;;23.00;54.90;;;;;;5088857;28;20452;-89
2023/12/05 12:45:56;;;;;;;1.23;0.90;;;23.00;54.90;;;;;;5080517;28;20467;-89
2023/12/05 12:48:25;;;;;;;4.33;0.90;;;23.10;55.00;;;;;;5063555;28;20486;-92
2023/12/05 12:50:53;;;;;;;1.00;0.80;;;23.10;55.00;;;;;;5037783;28;20457;-89
2023/12/05 12:53:20;;;;;;;1.60;0.70;;;23.00;55.00;;;;;;5034381;28;20446;-84